»·PEaware :: N654SW KGEG-KSEA

N654SW :: KGEG-KSEA

FLIGHT INFORMATION

Flight Status: Arrived
Operator: Privately registered:
United States
More flights under this callsign
Pilot: Sergei F. (8485)
Aircraft: BOEING 737-300
(B733)
More flights by this aircraft type
Origin: KGEG Spokane Intl
United States
Destination: KSEA Seattle-Tacoma Intl
United States
More flights between these airports :: More routes between these airports
Route: GEG6 GEG GLASR1
File this flight plan on PilotEdge
Remarks:
Altitude:
(Current/Filed)
32,000ft
Speed:
(Current/Filed)
400kts
Departed: 14-Feb-21 09:19 PM
Arrived: 14-Feb-21 10:19 PM
Distance/Time
Traveled:
193nm/1:00
Distance/Time
To Go:
Arrived

Flight Plot

Page will automatically refresh every two minutes.

Flight plan parsing failed; only flown route is shown


Map Options




Map Legend


Flown Route
Filed Route
Departure Airport
Arrival Airport
Navaid (VOR, NDB)
Fix

Horizontal Profiles

Position Reports

Time Latitude Longitude Heading Altitude Ground
Speed
14-Feb-21 20:52 47.623999 -117.536335 34 2362ft 0kts
14-Feb-21 20:53 47.623999 -117.536335 34 2362ft 0kts
14-Feb-21 20:54 47.623999 -117.536335 34 2362ft 0kts
14-Feb-21 20:56 47.623999 -117.536335 34 2362ft 0kts
14-Feb-21 20:57 47.623999 -117.536335 34 2362ft 0kts
14-Feb-21 20:58 47.623999 -117.536335 34 2362ft 0kts
14-Feb-21 20:59 47.623999 -117.536336 34 2362ft 0kts
14-Feb-21 21:00 47.623784 -117.536594 57 2363ft 2kts
14-Feb-21 21:01 47.623835 -117.537301 137 2364ft 0kts
14-Feb-21 21:02 47.623342 -117.536605 135 2363ft 0kts
14-Feb-21 21:03 47.623342 -117.536604 135 2363ft 0kts
14-Feb-21 21:04 47.623342 -117.536604 135 2363ft 0kts
14-Feb-21 21:05 47.623342 -117.536604 135 2363ft 0kts
14-Feb-21 21:06 47.623342 -117.536604 135 2363ft 0kts
14-Feb-21 21:07 47.623342 -117.536604 135 2363ft 0kts
14-Feb-21 21:08 47.623342 -117.536604 135 2363ft 0kts
14-Feb-21 21:09 47.623198 -117.536444 159 2363ft 3kts
14-Feb-21 21:10 47.621848 -117.537018 156 2364ft 7kts
14-Feb-21 21:11 47.619695 -117.539667 224 2367ft 13kts
14-Feb-21 21:12 47.616781 -117.544048 224 2373ft 15kts
14-Feb-21 21:13 47.614019 -117.548207 224 2379ft 15kts
14-Feb-21 21:13 47.612150 -117.551030 223 2382ft 7kts
14-Feb-21 21:14 47.610896 -117.551051 134 2384ft 0kts
14-Feb-21 21:16 47.610896 -117.551051 134 2384ft 0kts
14-Feb-21 21:16 47.610812 -117.550926 134 2384ft 2kts
14-Feb-21 21:17 47.610434 -117.549577 48 2386ft 0kts
14-Feb-21 21:19 47.632675 -117.514247 46 3799ft 177kts
14-Feb-21 21:19 47.660962 -117.471399 43 5861ft 182kts
14-Feb-21 21:20 47.695097 -117.404671 84 7743ft 226kts
14-Feb-21 21:21 47.649287 -117.365720 216 10194ft 235kts
14-Feb-21 21:22 47.618343 -117.450867 246 12790ft 244kts
14-Feb-21 21:23 47.588954 -117.548749 246 14748ft 282kts
14-Feb-21 21:24 47.557377 -117.664904 254 16303ft 314kts
14-Feb-21 21:25 47.532228 -117.789984 254 17821ft 318kts
14-Feb-21 21:26 47.506723 -117.916013 255 19334ft 321kts
14-Feb-21 21:27 47.480721 -118.042658 256 20839ft 326kts
14-Feb-21 21:28 47.453912 -118.172855 256 22367ft 331kts
14-Feb-21 21:29 47.426845 -118.303945 257 23881ft 337kts
14-Feb-21 21:30 47.399073 -118.436939 258 25392ft 343kts
14-Feb-21 21:31 47.370662 -118.572809 259 26908ft 345kts
14-Feb-21 21:32 47.342433 -118.707042 259 28377ft 342kts
14-Feb-21 21:33 47.314063 -118.840179 260 29879ft 342kts
14-Feb-21 21:34 47.285589 -118.972863 260 31382ft 335kts
14-Feb-21 21:35 47.257663 -119.101375 261 32872ft 328kts
14-Feb-21 21:36 47.230088 -119.229610 262 34377ft 329kts
14-Feb-21 21:37 47.204366 -119.358078 266 35864ft 323kts
14-Feb-21 21:38 47.183490 -119.491171 265 36019ft 344kts
14-Feb-21 21:39 47.161504 -119.628216 265 36035ft 344kts
14-Feb-21 21:40 47.139378 -119.765470 265 36029ft 345kts
14-Feb-21 21:41 47.117035 -119.902430 265 36030ft 345kts
14-Feb-21 21:42 47.094650 -120.038686 265 36035ft 344kts
14-Feb-21 21:43 47.072090 -120.175569 265 36005ft 345kts
14-Feb-21 21:44 47.049272 -120.311887 265 35979ft 344kts
14-Feb-21 21:45 47.027244 -120.447843 272 35828ft 336kts
14-Feb-21 21:46 47.052042 -120.577793 290 32280ft 336kts
14-Feb-21 21:47 47.082732 -120.710183 288 28424ft 356kts
14-Feb-21 21:48 47.114866 -120.850399 287 24629ft 365kts
14-Feb-21 21:49 47.146151 -120.988981 286 23955ft 359kts
14-Feb-21 21:51 47.197781 -121.217914 285 23969ft 361kts
14-Feb-21 21:52 47.229173 -121.358170 285 23892ft 362kts
14-Feb-21 21:53 47.260438 -121.498986 285 23827ft 362kts
14-Feb-21 21:54 47.291271 -121.640655 285 23825ft 362kts
14-Feb-21 21:55 47.322265 -121.782260 284 23826ft 362kts
14-Feb-21 21:56 47.352802 -121.922371 284 23825ft 362kts
14-Feb-21 21:57 47.383003 -122.063439 284 23821ft 362kts
14-Feb-21 21:58 47.413252 -122.204485 284 23854ft 345kts
14-Feb-21 21:59 47.439967 -122.329147 290 23791ft 315kts
14-Feb-21 22:00 47.518958 -122.390770 0 22051ft 380kts
14-Feb-21 22:01 47.612828 -122.312651 26 19558ft 386kts
14-Feb-21 22:02 47.706581 -122.293081 351 17885ft 318kts
14-Feb-21 22:03 47.784025 -122.289608 357 15725ft 299kts
14-Feb-21 22:04 47.853171 -122.283652 359 13576ft 289kts
14-Feb-21 22:05 47.932571 -122.272350 2 11006ft 284kts
14-Feb-21 22:06 47.994496 -122.313328 277 8470ft 256kts
14-Feb-21 22:07 47.953611 -122.368645 158 6790ft 233kts
14-Feb-21 22:08 47.903612 -122.311052 145 6971ft 224kts
14-Feb-21 22:09 47.843389 -122.300053 195 5971ft 214kts
14-Feb-21 22:10 47.784302 -122.313214 170 5999ft 218kts
14-Feb-21 22:11 47.723280 -122.303470 181 5817ft 220kts
14-Feb-21 22:12 47.662227 -122.305993 181 4345ft 201kts
14-Feb-21 22:13 47.610979 -122.306501 180 3359ft 167kts
14-Feb-21 22:14 47.569070 -122.306824 180 2516ft 133kts
14-Feb-21 22:15 47.532903 -122.307149 179 1805ft 126kts
14-Feb-21 22:16 47.497776 -122.307448 180 1125ft 127kts
14-Feb-21 22:17 47.462129 -122.307809 179 440ft 127kts
14-Feb-21 22:18 47.439882 -122.307956 181 369ft 14kts
14-Feb-21 22:19 47.439165 -122.306504 37 368ft 0kts
14-Feb-21 22:20 47.439339 -122.306410 10 369ft 3kts
14-Feb-21 22:21 47.439718 -122.304047 135 373ft 8kts
14-Feb-21 22:22 47.439084 -122.303288 138 371ft 0kts
14-Feb-21 22:23 47.439084 -122.303288 138 371ft 0kts

Navigation Log

Ident Type
Flight plan parsing failed, navigation log unavailable